sensor_id;sensor_type;location;lat;lon;timestamp;pressure;altitude;pressure_sealevel;temperature;humidity
47710;BME280;33473;51.640;5.892;2023-09-30T00:08:21;102300;;;18.7;54.0
47710;BME280;33473;51.640;5.892;2023-09-30T00:21:41;102400;;;18.7;54.0
47710;BME280;33473;51.640;5.892;2023-09-30T00:35:00;102300;;;18.7;54.0
47710;BME280;33473;51.640;5.892;2023-09-30T00:48:22;102300;;;18.8;54.0
47710;BME280;33473;51.640;5.892;2023-09-30T01:01:43;102300;;;18.7;54.0
47710;BME280;33473;51.640;5.892;2023-09-30T01:15:04;102400;;;18.7;54.0
47710;BME280;33473;51.640;5.892;2023-09-30T01:28:24;102400;;;18.6;53.0
47710;BME280;33473;51.640;5.892;2023-09-30T01:41:45;102400;;;18.5;53.0
47710;BME280;33473;51.640;5.892;2023-09-30T01:55:05;102400;;;18.4;53.0
47710;BME280;33473;51.640;5.892;2023-09-30T02:08:26;102400;;;18.4;54.0
47710;BME280;33473;51.640;5.892;2023-09-30T02:21:46;102400;;;18.3;53.0
47710;BME280;33473;51.640;5.892;2023-09-30T02:35:06;102400;;;18.2;54.0
47710;BME280;33473;51.640;5.892;2023-09-30T02:48:26;102400;;;18.3;55.0
47710;BME280;33473;51.640;5.892;2023-09-30T03:01:45;102400;;;18.3;54.0
47710;BME280;33473;51.640;5.892;2023-09-30T03:15:07;102400;;;18.2;54.0
47710;BME280;33473;51.640;5.892;2023-09-30T03:28:26;102400;;;18.1;54.0
47710;BME280;33473;51.640;5.892;2023-09-30T03:41:48;102400;;;18.0;54.0
47710;BME280;33473;51.640;5.892;2023-09-30T03:55:09;102400;;;18.0;54.0
47710;BME280;33473;51.640;5.892;2023-09-30T04:08:29;102400;;;17.9;54.0
47710;BME280;33473;51.640;5.892;2023-09-30T04:21:50;102400;;;17.9;54.0
47710;BME280;33473;51.640;5.892;2023-09-30T04:35:10;102400;;;17.9;54.0
47710;BME280;33473;51.640;5.892;2023-09-30T04:48:31;102400;;;17.8;54.0
47710;BME280;33473;51.640;5.892;2023-09-30T05:01:52;102400;;;17.7;54.0
47710;BME280;33473;51.640;5.892;2023-09-30T05:15:12;102400;;;17.7;54.0
47710;BME280;33473;51.640;5.892;2023-09-30T05:28:32;102400;;;17.8;54.0
47710;BME280;33473;51.640;5.892;2023-09-30T05:41:51;102400;;;17.8;54.0
47710;BME280;33473;51.640;5.892;2023-09-30T05:55:11;102400;;;17.8;54.0
47710;BME280;33473;51.640;5.892;2023-09-30T06:08:31;102400;;;17.8;55.0
47710;BME280;33473;51.640;5.892;2023-09-30T06:21:52;102400;;;17.8;55.0
47710;BME280;33473;51.640;5.892;2023-09-30T06:48:33;102400;;;18.2;56.0
47710;BME280;33473;51.640;5.892;2023-09-30T07:01:54;102500;;;18.6;56.0
47710;BME280;33473;51.640;5.892;2023-09-30T07:15:16;102500;;;19.2;57.0
47710;BME280;33473;51.640;5.892;2023-09-30T07:28:37;102500;;;19.8;57.0
47710;BME280;33473;51.640;5.892;2023-09-30T07:41:57;102500;;;20.4;57.0
47710;BME280;33473;51.640;5.892;2023-09-30T07:55:18;102500;;;20.9;57.0
47710;BME280;33473;51.640;5.892;2023-09-30T08:08:39;102500;;;21.4;56.0
47710;BME280;33473;51.640;5.892;2023-09-30T08:22:00;102500;;;21.7;56.0
47710;BME280;33473;51.640;5.892;2023-09-30T08:35:22;102500;;;21.7;55.0
47710;BME280;33473;51.640;5.892;2023-09-30T08:48:43;102500;;;22.8;54.0
47710;BME280;33473;51.640;5.892;2023-09-30T09:02:04;102500;;;23.5;53.0
47710;BME280;33473;51.640;5.892;2023-09-30T09:15:24;102500;;;24.3;50.0
47710;BME280;33473;51.640;5.892;2023-09-30T09:28:45;102500;;;25.1;48.0
47710;BME280;33473;51.640;5.892;2023-09-30T09:42:05;102500;;;25.5;45.0
47710;BME280;33473;51.640;5.892;2023-09-30T09:55:26;102500;;;26.0;43.0
47710;BME280;33473;51.640;5.892;2023-09-30T10:08:46;102500;;;26.2;40.0
47710;BME280;33473;51.640;5.892;2023-09-30T10:22:07;102500;;;26.4;41.0
47710;BME280;33473;51.640;5.892;2023-09-30T10:35:28;102500;;;26.4;40.0
47710;BME280;33473;51.640;5.892;2023-09-30T10:48:50;102500;;;26.5;40.0
47710;BME280;33473;51.640;5.892;2023-09-30T11:02:11;102500;;;26.9;40.0
47710;BME280;33473;51.640;5.892;2023-09-30T11:15:31;102500;;;27.2;38.0
47710;BME280;33473;51.640;5.892;2023-09-30T11:28:52;102500;;;27.5;37.0
47710;BME280;33473;51.640;5.892;2023-09-30T11:42:12;102500;;;27.7;35.0
47710;BME280;33473;51.640;5.892;2023-09-30T11:55:31;102400;;;27.7;35.0
47710;BME280;33473;51.640;5.892;2023-09-30T12:08:51;102500;;;27.5;32.0
47710;BME280;33473;51.640;5.892;2023-09-30T12:22:12;102500;;;26.9;34.0
47710;BME280;33473;51.640;5.892;2023-09-30T12:35:33;102500;;;26.8;36.0
47710;BME280;33473;51.640;5.892;2023-09-30T12:48:53;102400;;;26.8;36.0
47710;BME280;33473;51.640;5.892;2023-09-30T13:02:14;102400;;;26.5;37.0
47710;BME280;33473;51.640;5.892;2023-09-30T13:15:34;102400;;;26.5;36.0
47710;BME280;33473;51.640;5.892;2023-09-30T13:28:54;102400;;;26.6;36.0
47710;BME280;33473;51.640;5.892;2023-09-30T13:42:15;102400;;;26.4;37.0
47710;BME280;33473;51.640;5.892;2023-09-30T13:55:35;102400;;;26.3;37.0
47710;BME280;33473;51.640;5.892;2023-09-30T14:08:56;102400;;;26.3;37.0
47710;BME280;33473;51.640;5.892;2023-09-30T14:22:17;102400;;;26.2;37.0
47710;BME280;33473;51.640;5.892;2023-09-30T14:35:38;102400;;;26.1;37.0
47710;BME280;33473;51.640;5.892;2023-09-30T14:48:58;102400;;;25.9;38.0
47710;BME280;33473;51.640;5.892;2023-09-30T15:02:18;102400;;;25.6;39.0
47710;BME280;33473;51.640;5.892;2023-09-30T15:15:39;102400;;;25.4;40.0
47710;BME280;33473;51.640;5.892;2023-09-30T15:28:59;102400;;;25.2;40.0
47710;BME280;33473;51.640;5.892;2023-09-30T15:42:20;102300;;;25.2;41.0
47710;BME280;33473;51.640;5.892;2023-09-30T15:55:41;102300;;;25.0;42.0
47710;BME280;33473;51.640;5.892;2023-09-30T16:09:02;102400;;;24.7;42.0
47710;BME280;33473;51.640;5.892;2023-09-30T16:22:22;102400;;;24.4;44.0
47710;BME280;33473;51.640;5.892;2023-09-30T16:35:43;102300;;;24.0;44.0
47710;BME280;33473;51.640;5.892;2023-09-30T16:49:04;102300;;;23.7;45.0
47710;BME280;33473;51.640;5.892;2023-09-30T17:02:24;102400;;;23.3;45.0
47710;BME280;33473;51.640;5.892;2023-09-30T17:15:44;102400;;;23.0;46.0
47710;BME280;33473;51.640;5.892;2023-09-30T17:29:03;102400;;;22.6;46.0
47710;BME280;33473;51.640;5.892;2023-09-30T17:42:23;102400;;;22.3;46.0
47710;BME280;33473;51.640;5.892;2023-09-30T17:55:44;102400;;;22.1;47.0
47710;BME280;33473;51.640;5.892;2023-09-30T18:09:04;102400;;;21.8;48.0
47710;BME280;33473;51.640;5.892;2023-09-30T18:22:23;102400;;;21.6;48.0
47710;BME280;33473;51.640;5.892;2023-09-30T18:35:43;102300;;;21.4;48.0
47710;BME280;33473;51.640;5.892;2023-09-30T18:49:04;102400;;;21.4;49.0
47710;BME280;33473;51.640;5.892;2023-09-30T19:02:26;102400;;;21.4;50.0
47710;BME280;33473;51.640;5.892;2023-09-30T19:15:47;102300;;;21.5;50.0
47710;BME280;33473;51.640;5.892;2023-09-30T19:29:07;102300;;;21.4;50.0
47710;BME280;33473;51.640;5.892;2023-09-30T19:42:26;102300;;;21.5;51.0
47710;BME280;33473;51.640;5.892;2023-09-30T19:55:47;102300;;;21.5;50.0
47710;BME280;33473;51.640;5.892;2023-09-30T20:09:09;102300;;;21.4;50.0
47710;BME280;33473;51.640;5.892;2023-09-30T20:22:30;102300;;;21.2;50.0
47710;BME280;33473;51.640;5.892;2023-09-30T20:35:51;102400;;;20.9;50.0
47710;BME280;33473;51.640;5.892;2023-09-30T20:49:11;102300;;;20.7;51.0
47710;BME280;33473;51.640;5.892;2023-09-30T21:02:32;102300;;;20.5;51.0
47710;BME280;33473;51.640;5.892;2023-09-30T21:15:53;102400;;;20.3;51.0
47710;BME280;33473;51.640;5.892;2023-09-30T21:29:15;102400;;;20.1;52.0
47710;BME280;33473;51.640;5.892;2023-09-30T21:42:34;102300;;;20.0;52.0
47710;BME280;33473;51.640;5.892;2023-09-30T21:55:54;102300;;;20.1;53.0
47710;BME280;33473;51.640;5.892;2023-09-30T22:09:15;102300;;;20.3;53.0
47710;BME280;33473;51.640;5.892;2023-09-30T22:35:56;102300;;;20.4;53.0
47710;BME280;33473;51.640;5.892;2023-09-30T22:49:18;102300;;;20.3;52.0
47710;BME280;33473;51.640;5.892;2023-09-30T23:02:39;102300;;;20.3;52.0
47710;BME280;33473;51.640;5.892;2023-09-30T23:16:00;102300;;;20.4;52.0
47710;BME280;33473;51.640;5.892;2023-09-30T23:29:22;102300;;;20.5;52.0
47710;BME280;33473;51.640;5.892;2023-09-30T23:42:43;102300;;;20.5;52.0
47710;BME280;33473;51.640;5.892;2023-09-30T23:56:04;102300;;;20.3;51.0
